Nunnelly, Tennessee
Current Conditions -  °F | °C
As of 12:35 PM on Saturday 25 Oct 2014 (Local Time) from KMRC Reporting Station
Few Clouds Few Clouds  
Wind Chill: 75°   Ceiling: Unl
Heat Index: 75°   Visibility: 10mi
Dew Point: 63°   Wind: 5mph
Humidity: 65%   Direction: NA
Pressure: 30.05"   Gusts: NA
Location:  35.86°N, 87.47°W
Report Text: KMRC 251735Z AUTO VRB04KT 10SM FEW049 24/17 A3005 RMK
Loading
Personal Weather Stations






























Interactive Weather Map
Tropical Storm Tracking
New forecast layout! Learn more

10-Day Weather Forecast

Advertisements
Track Severe Weather on mobile